Time;durP1;ratioP1;P1;durP2;ratioP2;P2;SDS_P1;SDS_P2;PMS_P1;PMS_P2;Temp;Humidity;BMP_temperature;BMP_pressure;BME280_temperature;BME280_humidity;BME280_pressure;Samples;Min_cycle;Max_cycle;Signal;HPM_P1;HPM_P2
2021/12/01 00:01:54;;;;;;;0.50;0.50;;;5.90;99.90;;;;;;4970458;28;20027;-82
2021/12/01 00:04:19;;;;;;;0.82;0.63;;;5.90;99.90;;;;;;4971476;28;20031;-82
2021/12/01 00:06:45;;;;;;;0.55;0.52;;;5.90;99.90;;;;;;4971178;28;20083;-81
2021/12/01 00:09:11;;;;;;;0.98;0.60;;;5.90;99.90;;;;;;4966715;29;20054;-84
2021/12/01 00:11:37;;;;;;;2.17;0.40;;;5.90;99.90;;;;;;4971775;28;20063;-83
2021/12/01 00:14:04;;;;;;;0.50;0.50;;;5.90;99.90;;;;;;4969063;28;20038;-82
2021/12/01 00:16:30;;;;;;;0.80;0.60;;;6.00;99.90;;;;;;4961963;29;20020;-83
2021/12/01 00:18:55;;;;;;;0.57;0.57;;;6.00;99.90;;;;;;4966903;28;20415;-84
2021/12/01 00:21:21;;;;;;;0.90;0.52;;;6.00;99.90;;;;;;4962576;29;20030;-83
2021/12/01 00:23:47;;;;;;;1.48;0.50;;;6.00;99.90;;;;;;4963346;29;20028;-83
2021/12/01 00:26:13;;;;;;;0.50;0.50;;;6.10;99.90;;;;;;4959436;29;20054;-82
2021/12/01 00:28:39;;;;;;;1.23;0.60;;;6.10;99.90;;;;;;4962083;29;20043;-83
2021/12/01 00:31:05;;;;;;;0.52;0.50;;;6.20;99.90;;;;;;4958099;29;20028;-83
2021/12/01 00:33:31;;;;;;;0.50;0.35;;;6.20;99.90;;;;;;4949951;29;20038;-83
2021/12/01 00:35:57;;;;;;;0.93;0.60;;;6.20;99.90;;;;;;4950433;29;20083;-85
2021/12/01 00:38:25;;;;;;;0.90;0.40;;;6.30;99.90;;;;;;4949394;29;20024;-82
2021/12/01 00:40:52;;;;;;;0.30;0.30;;;6.30;99.90;;;;;;4948886;29;20079;-84
2021/12/01 00:43:18;;;;;;;0.50;0.50;;;6.40;99.90;;;;;;4948336;29;20039;-82
2021/12/01 00:45:55;;;;;;;0.80;0.50;;;6.40;99.90;;;;;;4946841;29;20035;-83
2021/12/01 00:48:22;;;;;;;0.20;0.20;;;6.40;99.90;;;;;;4948072;29;20036;-83
2021/12/01 00:50:49;;;;;;;0.30;0.28;;;6.50;99.90;;;;;;4947415;29;20028;-84
2021/12/01 00:53:15;;;;;;;0.20;0.20;;;6.60;99.90;;;;;;4956868;29;20019;-83
2021/12/01 00:55:43;;;;;;;0.85;0.43;;;6.60;99.90;;;;;;4951007;29;20391;-82
2021/12/01 00:58:11;;;;;;;0.30;0.30;;;6.60;99.90;;;;;;4948368;29;20035;-84
2021/12/01 01:00:39;;;;;;;0.55;0.40;;;6.70;99.90;;;;;;4947636;29;20023;-84
2021/12/01 01:03:05;;;;;;;0.30;0.30;;;6.70;99.90;;;;;;4949124;29;20564;-84
2021/12/01 01:05:31;;;;;;;1.50;0.38;;;6.70;99.90;;;;;;4950452;29;20032;-84
2021/12/01 01:07:57;;;;;;;0.95;0.28;;;6.70;99.90;;;;;;4949149;29;20039;-84
2021/12/01 01:18:34;;;;;;;0.45;0.20;;;6.90;99.90;;;;;;4950091;29;20472;-83
2021/12/01 01:21:01;;;;;;;0.10;0.10;;;6.90;99.90;;;;;;4956444;29;20088;-83
2021/12/01 01:23:29;;;;;;;0.10;0.10;;;7.00;99.90;;;;;;4961199;29;20038;-83
2021/12/01 01:25:57;;;;;;;0.22;0.20;;;7.00;99.90;;;;;;4956110;29;20412;-83
2021/12/01 01:28:23;;;;;;;0.30;0.30;;;7.00;99.90;;;;;;4966360;29;20082;-82
2021/12/01 01:30:48;;;;;;;1.98;0.20;;;7.00;99.90;;;;;;4966680;29;20044;-82
2021/12/01 01:33:14;;;;;;;0.20;0.20;;;7.00;99.90;;;;;;4964492;29;20024;-83
2021/12/01 01:35:40;;;;;;;0.20;0.20;;;7.00;99.90;;;;;;4964071;29;20023;-83
2021/12/01 01:38:06;;;;;;;0.20;0.10;;;7.10;99.90;;;;;;4963387;29;20007;-83
2021/12/01 01:40:32;;;;;;;0.00;0.00;;;7.10;99.90;;;;;;4963776;29;20051;-83
2021/12/01 01:42:58;;;;;;;0.32;0.20;;;7.10;99.90;;;;;;4961627;29;20032;-81
2021/12/01 01:45:24;;;;;;;0.20;0.20;;;7.10;99.90;;;;;;4965035;28;20035;-83
2021/12/01 01:48:05;;;;;;;0.25;0.20;;;7.10;99.90;;;;;;4965346;29;20122;-83
2021/12/01 01:50:35;;;;;;;0.10;0.10;;;7.20;99.90;;;;;;4963759;29;20030;-81
2021/12/01 01:53:11;;;;;;;0.10;0.10;;;7.20;99.90;;;;;;4967118;28;20067;-80
2021/12/01 01:55:42;;;;;;;0.30;0.20;;;7.20;99.90;;;;;;4967946;29;20035;-83
2021/12/01 01:58:08;;;;;;;0.60;0.20;;;7.20;99.90;;;;;;4964977;29;20067;-82
2021/12/01 02:00:44;;;;;;;0.32;0.20;;;7.20;99.90;;;;;;4972433;28;20027;-80
2021/12/01 02:03:12;;;;;;;0.25;0.25;;;7.20;99.90;;;;;;4979913;28;20030;-82
2021/12/01 02:05:38;;;;;;;0.22;0.10;;;7.20;99.90;;;;;;4977959;28;20039;-83
2021/12/01 02:08:05;;;;;;;0.25;0.17;;;7.20;99.90;;;;;;4976374;29;20035;-82
2021/12/01 02:10:31;;;;;;;0.88;0.20;;;7.20;99.90;;;;;;4977381;29;20064;-82
2021/12/01 02:12:57;;;;;;;0.10;0.10;;;7.30;99.90;;;;;;4978556;28;20038;-80
2021/12/01 02:15:23;;;;;;;1.02;0.30;;;7.30;99.90;;;;;;4977599;28;20035;-82
2021/12/01 02:17:48;;;;;;;0.10;0.10;;;7.30;99.90;;;;;;4969254;29;20446;-83
2021/12/01 02:20:21;;;;;;;0.28;0.20;;;7.20;99.90;;;;;;4972479;29;20039;-81
2021/12/01 02:22:49;;;;;;;0.47;0.30;;;7.20;99.90;;;;;;4975679;29;20035;-80
2021/12/01 02:25:15;;;;;;;0.30;0.30;;;7.20;99.90;;;;;;4975849;29;20042;-82
2021/12/01 02:27:41;;;;;;;0.32;0.30;;;7.20;99.90;;;;;;4973493;28;20015;-82
2021/12/01 02:30:07;;;;;;;0.22;0.20;;;7.10;99.90;;;;;;4972470;29;20042;-82
2021/12/01 02:32:33;;;;;;;0.20;0.20;;;7.10;99.90;;;;;;4971105;29;20035;-83
2021/12/01 02:34:59;;;;;;;1.85;0.20;;;7.10;99.90;;;;;;4971318;29;20518;-83
2021/12/01 02:37:25;;;;;;;2.15;0.30;;;7.10;99.90;;;;;;4975477;29;20015;-83
2021/12/01 02:39:52;;;;;;;0.30;0.30;;;7.00;99.90;;;;;;4970844;29;20086;-82
2021/12/01 02:42:21;;;;;;;0.32;0.30;;;7.10;99.90;;;;;;4970914;29;20027;-83
2021/12/01 02:44:49;;;;;;;0.20;0.20;;;7.00;99.90;;;;;;4972701;29;20023;-82
2021/12/01 02:47:15;;;;;;;0.40;0.22;;;7.00;99.90;;;;;;4977158;28;20059;-82
2021/12/01 02:49:41;;;;;;;0.40;0.20;;;7.00;99.90;;;;;;4976531;28;20007;-82
2021/12/01 02:52:07;;;;;;;0.20;0.20;;;7.00;99.90;;;;;;4977642;29;20019;-81
2021/12/01 02:54:33;;;;;;;0.35;0.32;;;7.10;99.90;;;;;;4972773;29;20110;-81
2021/12/01 02:56:59;;;;;;;0.30;0.25;;;7.10;99.90;;;;;;4972547;29;20036;-82
2021/12/01 02:59:25;;;;;;;0.20;0.20;;;7.10;99.90;;;;;;4972053;29;20035;-83
2021/12/01 03:01:54;;;;;;;1.15;0.50;;;7.10;99.90;;;;;;4971879;29;20030;-81
2021/12/01 03:04:21;;;;;;;0.28;0.20;;;7.10;99.90;;;;;;4971245;29;20178;-82
2021/12/01 03:06:49;;;;;;;0.52;0.30;;;7.10;99.90;;;;;;4970102;29;20038;-83
2021/12/01 03:09:16;;;;;;;0.35;0.30;;;7.10;99.90;;;;;;4970063;29;20098;-82
2021/12/01 03:11:43;;;;;;;0.57;0.30;;;7.10;99.90;;;;;;4969694;29;20027;-83
2021/12/01 03:14:12;;;;;;;0.28;0.28;;;7.10;99.90;;;;;;4974425;29;20098;-82
2021/12/01 03:16:38;;;;;;;0.77;0.30;;;7.10;99.90;;;;;;4972242;28;20079;-83
2021/12/01 03:19:04;;;;;;;1.00;0.30;;;7.10;99.90;;;;;;4970562;29;20020;-83
2021/12/01 03:21:33;;;;;;;0.30;0.30;;;7.10;99.90;;;;;;4972303;29;20123;-82
2021/12/01 03:23:59;;;;;;;0.10;0.10;;;7.10;99.90;;;;;;4974014;28;20020;-83
2021/12/01 03:26:27;;;;;;;0.28;0.28;;;7.10;99.90;;;;;;4977345;29;20031;-83
2021/12/01 03:28:53;;;;;;;0.28;0.28;;;7.10;99.90;;;;;;4975806;29;20055;-83
2021/12/01 03:31:19;;;;;;;0.50;0.20;;;7.10;99.90;;;;;;4978620;28;20031;-81
2021/12/01 03:33:45;;;;;;;0.45;0.40;;;7.10;99.90;;;;;;4977160;29;20074;-81
2021/12/01 03:36:11;;;;;;;0.93;0.47;;;7.10;99.90;;;;;;4976024;29;20043;-84
2021/12/01 03:38:37;;;;;;;0.40;0.40;;;7.00;99.90;;;;;;4976273;29;20027;-83
2021/12/01 03:41:03;;;;;;;0.25;0.22;;;7.00;99.90;;;;;;4975053;29;20098;-84
2021/12/01 03:43:28;;;;;;;0.88;0.30;;;7.00;99.90;;;;;;4974661;29;20031;-82
2021/12/01 03:45:55;;;;;;;0.30;0.30;;;7.00;99.90;;;;;;4977372;28;20007;-83
2021/12/01 03:48:22;;;;;;;0.43;0.43;;;6.90;99.90;;;;;;4981564;28;20015;-82
2021/12/01 03:50:50;;;;;;;0.65;0.28;;;6.90;99.90;;;;;;4975343;29;20067;-82
2021/12/01 03:53:17;;;;;;;0.22;0.22;;;6.90;99.90;;;;;;4976201;29;20050;-82
2021/12/01 03:55:43;;;;;;;0.40;0.40;;;6.90;99.90;;;;;;4978270;28;20062;-81
2021/12/01 03:58:09;;;;;;;0.22;0.22;;;6.90;99.90;;;;;;4976595;29;20031;-82
2021/12/01 04:00:35;;;;;;;0.32;0.32;;;6.90;99.90;;;;;;4973088;29;20027;-83
2021/12/01 04:03:01;;;;;;;0.25;0.25;;;6.90;99.90;;;;;;4972130;29;20023;-82
2021/12/01 04:05:27;;;;;;;1.00;0.30;;;6.80;99.90;;;;;;4973682;28;20055;-82
2021/12/01 04:07:53;;;;;;;0.63;0.30;;;6.90;99.90;;;;;;4977429;28;20023;-80
2021/12/01 04:10:20;;;;;;;0.40;0.40;;;6.90;99.90;;;;;;4981921;28;20066;-80
2021/12/01 04:12:46;;;;;;;0.40;0.30;;;6.90;99.90;;;;;;4977058;28;20059;-84
2021/12/01 04:15:13;;;;;;;0.43;0.30;;;6.90;99.90;;;;;;4974054;29;20042;-81
2021/12/01 04:17:42;;;;;;;0.77;0.50;;;7.00;99.90;;;;;;4978923;28;20035;-81
2021/12/01 04:20:09;;;;;;;0.38;0.38;;;7.00;99.90;;;;;;4982004;28;20023;-81
2021/12/01 04:22:35;;;;;;;0.90;0.38;;;6.90;99.90;;;;;;4981716;28;20031;-81
2021/12/01 04:25:02;;;;;;;0.50;0.50;;;7.00;99.90;;;;;;4981272;28;20023;-80
2021/12/01 04:27:28;;;;;;;0.55;0.55;;;7.00;99.90;;;;;;4981624;28;20032;-80
2021/12/01 04:29:54;;;;;;;0.55;0.47;;;7.00;99.90;;;;;;4981528;28;20042;-80
2021/12/01 04:32:20;;;;;;;1.85;0.52;;;7.10;99.90;;;;;;4981118;28;20031;-82
2021/12/01 04:34:46;;;;;;;2.22;0.40;;;7.10;99.90;;;;;;4981142;28;20055;-80
2021/12/01 04:37:12;;;;;;;0.40;0.40;;;7.20;99.90;;;;;;4980400;28;20039;-81
2021/12/01 04:39:38;;;;;;;0.50;0.50;;;7.20;99.90;;;;;;4964219;29;20035;-82
2021/12/01 04:42:05;;;;;;;0.65;0.57;;;7.20;99.90;;;;;;4975677;29;20034;-82
2021/12/01 04:44:35;;;;;;;0.75;0.55;;;7.20;99.90;;;;;;4976436;28;20042;-82
2021/12/01 04:47:04;;;;;;;0.70;0.60;;;7.20;99.90;;;;;;4975652;29;20020;-81
2021/12/01 04:49:37;;;;;;;0.60;0.60;;;7.20;99.90;;;;;;4973927;29;20043;-82
2021/12/01 04:52:03;;;;;;;0.77;0.55;;;7.20;99.90;;;;;;4975871;28;20035;-82
2021/12/01 04:54:29;;;;;;;0.50;0.50;;;7.20;99.90;;;;;;4953738;29;20537;-84
2021/12/01 04:56:56;;;;;;;0.70;0.50;;;7.30;99.90;;;;;;4969512;29;20031;-84
2021/12/01 04:59:22;;;;;;;0.70;0.70;;;7.30;99.90;;;;;;4971928;29;20003;-81
2021/12/01 05:01:52;;;;;;;0.60;0.60;;;7.30;99.90;;;;;;4969118;29;20130;-82
2021/12/01 05:04:18;;;;;;;0.40;0.40;;;7.30;99.90;;;;;;4971213;29;20024;-83
2021/12/01 05:06:44;;;;;;;1.30;0.57;;;7.30;99.90;;;;;;4972499;28;20027;-83
2021/12/01 05:09:10;;;;;;;1.13;0.60;;;7.30;99.90;;;;;;4972704;29;20408;-83
2021/12/01 05:11:38;;;;;;;1.15;0.60;;;7.30;99.90;;;;;;4975165;29;20479;-83
2021/12/01 05:14:04;;;;;;;0.73;0.60;;;7.30;99.90;;;;;;4978130;29;20020;-82
2021/12/01 05:16:30;;;;;;;0.60;0.60;;;7.30;99.90;;;;;;4978738;28;20049;-84
2021/12/01 05:18:56;;;;;;;1.30;0.65;;;7.30;99.90;;;;;;4978105;29;20031;-83
2021/12/01 05:21:22;;;;;;;0.63;0.57;;;7.30;99.90;;;;;;4977316;29;20023;-83
2021/12/01 05:23:48;;;;;;;0.80;0.80;;;7.40;99.90;;;;;;4976098;29;20038;-83
2021/12/01 05:26:14;;;;;;;1.00;0.80;;;7.40;99.90;;;;;;4978694;29;20321;-82
2021/12/01 05:28:41;;;;;;;0.80;0.77;;;7.40;99.90;;;;;;4980548;28;20088;-82
2021/12/01 05:31:09;;;;;;;0.75;0.65;;;7.40;99.90;;;;;;4977514;28;20046;-83
2021/12/01 05:33:36;;;;;;;0.90;0.80;;;7.40;99.90;;;;;;4976705;29;20007;-84
2021/12/01 05:36:02;;;;;;;1.05;0.75;;;7.40;99.90;;;;;;4979375;29;20031;-81
2021/12/01 05:38:28;;;;;;;0.95;0.90;;;7.40;99.90;;;;;;4979681;28;20047;-83
2021/12/01 05:40:54;;;;;;;2.33;1.50;;;7.40;99.90;;;;;;4980300;28;20039;-82
2021/12/01 05:43:21;;;;;;;1.70;0.90;;;7.40;99.90;;;;;;4978852;28;20035;-81
2021/12/01 05:45:48;;;;;;;0.82;0.80;;;7.40;99.90;;;;;;4963779;23;20055;-83
2021/12/01 05:48:15;;;;;;;1.40;1.02;;;7.40;99.90;;;;;;4965701;28;20098;-85
2021/12/01 05:50:42;;;;;;;1.10;1.00;;;7.40;99.90;;;;;;4965823;29;20070;-84
2021/12/01 05:53:09;;;;;;;1.45;0.80;;;7.40;99.90;;;;;;4951593;29;20019;-84
2021/12/01 05:55:35;;;;;;;0.60;0.60;;;7.40;99.90;;;;;;4964818;28;20031;-83
2021/12/01 05:58:01;;;;;;;0.90;0.80;;;7.50;99.90;;;;;;4969810;29;20035;-84
2021/12/01 06:00:27;;;;;;;1.35;0.70;;;7.60;99.90;;;;;;4972281;29;20041;-84
2021/12/01 06:02:53;;;;;;;0.60;0.60;;;7.50;99.90;;;;;;4976312;29;20030;-84
2021/12/01 06:05:21;;;;;;;1.98;0.65;;;7.50;99.90;;;;;;4972608;28;20126;-85
2021/12/01 06:07:48;;;;;;;0.95;0.60;;;7.50;99.90;;;;;;4970396;29;20020;-84
2021/12/01 06:10:15;;;;;;;2.08;0.63;;;7.50;99.90;;;;;;4969932;29;20015;-84
2021/12/01 06:12:41;;;;;;;0.70;0.70;;;7.50;99.90;;;;;;4977102;28;20025;-83
2021/12/01 06:15:11;;;;;;;0.40;0.40;;;7.50;99.90;;;;;;4972602;28;20094;-84
2021/12/01 06:17:37;;;;;;;4.68;1.33;;;7.50;99.90;;;;;;4966317;29;20046;-84
2021/12/01 06:20:05;;;;;;;1.38;0.60;;;7.50;99.90;;;;;;4971223;29;20038;-83
2021/12/01 06:22:30;;;;;;;0.50;0.43;;;7.60;99.90;;;;;;4968976;29;20052;-84
2021/12/01 06:24:56;;;;;;;0.40;0.40;;;7.60;99.90;;;;;;4956261;29;20036;-83
2021/12/01 06:27:22;;;;;;;0.63;0.40;;;7.60;99.90;;;;;;4977924;29;20012;-82
2021/12/01 06:29:49;;;;;;;2.63;0.88;;;7.60;99.90;;;;;;4977590;29;20049;-82
2021/12/01 06:32:15;;;;;;;0.47;0.47;;;7.50;99.90;;;;;;4968056;29;20054;-83
2021/12/01 06:34:41;;;;;;;1.05;0.40;;;7.50;99.90;;;;;;4962747;28;20066;-83
2021/12/01 06:37:07;;;;;;;1.15;0.70;;;7.50;99.90;;;;;;4974066;29;20333;-82
2021/12/01 06:39:33;;;;;;;0.60;0.60;;;7.50;99.90;;;;;;4977947;28;20051;-83
2021/12/01 06:41:59;;;;;;;1.50;0.60;;;7.50;99.90;;;;;;4977634;28;20041;-82
2021/12/01 06:44:25;;;;;;;0.60;0.60;;;7.50;99.90;;;;;;4973390;28;20039;-83
2021/12/01 06:46:51;;;;;;;1.20;0.90;;;7.50;99.90;;;;;;4976634;28;20063;-81
2021/12/01 06:49:17;;;;;;;2.63;0.80;;;7.60;99.90;;;;;;4976121;28;20420;-83
2021/12/01 06:51:43;;;;;;;3.13;0.75;;;7.60;99.90;;;;;;4967519;29;20032;-82
2021/12/01 06:54:10;;;;;;;7.25;0.90;;;7.60;99.90;;;;;;4946232;29;20027;-82
2021/12/01 06:56:35;;;;;;;0.77;0.77;;;7.60;99.90;;;;;;4963212;29;20059;-84
2021/12/01 06:59:04;;;;;;;0.98;0.70;;;7.70;99.90;;;;;;4945639;29;20038;-83
2021/12/01 07:01:30;;;;;;;1.35;1.05;;;7.70;99.90;;;;;;4946299;29;20079;-83
2021/12/01 07:03:57;;;;;;;2.28;1.08;;;7.70;99.90;;;;;;4945980;29;20483;-84
2021/12/01 07:06:23;;;;;;;2.45;0.60;;;7.70;99.90;;;;;;4926386;29;20015;-85
2021/12/01 07:08:49;;;;;;;0.73;0.63;;;7.80;99.90;;;;;;4952878;29;20066;-83
2021/12/01 07:11:15;;;;;;;0.95;0.70;;;7.80;99.90;;;;;;4961716;29;20027;-82
2021/12/01 07:13:41;;;;;;;0.85;0.75;;;7.90;99.90;;;;;;4948509;29;20047;-83
2021/12/01 07:16:07;;;;;;;0.60;0.60;;;7.90;99.90;;;;;;4955891;29;20034;-83
2021/12/01 07:18:33;;;;;;;1.20;0.60;;;7.90;99.90;;;;;;4961450;29;20619;-84
2021/12/01 07:20:59;;;;;;;1.00;0.60;;;8.00;99.90;;;;;;4954301;29;20028;-84
2021/12/01 07:23:25;;;;;;;1.30;0.82;;;8.00;99.90;;;;;;4958543;29;20101;-84
2021/12/01 07:25:50;;;;;;;0.90;0.70;;;8.00;99.90;;;;;;4943382;29;20028;-83
2021/12/01 07:28:16;;;;;;;0.80;0.75;;;8.10;99.90;;;;;;4962101;29;20174;-83
2021/12/01 07:30:43;;;;;;;2.00;0.60;;;8.10;99.90;;;;;;4940664;29;20110;-84
2021/12/01 07:33:10;;;;;;;3.58;0.70;;;8.10;99.90;;;;;;4952013;29;20031;-83
2021/12/01 07:35:35;;;;;;;1.38;0.60;;;8.10;99.90;;;;;;4953863;29;20103;-84
2021/12/01 07:38:01;;;;;;;0.57;0.50;;;8.10;99.90;;;;;;4952635;29;20051;-84
2021/12/01 07:40:27;;;;;;;0.98;0.65;;;8.00;99.90;;;;;;4954412;29;20039;-84
2021/12/01 07:42:53;;;;;;;1.02;0.60;;;8.00;99.90;;;;;;4949183;29;20027;-84
2021/12/01 07:45:19;;;;;;;2.47;0.95;;;7.90;99.90;;;;;;4952235;29;20081;-83
2021/12/01 07:47:45;;;;;;;1.90;0.60;;;7.90;99.90;;;;;;4959334;29;20039;-82
2021/12/01 07:50:11;;;;;;;2.35;0.90;;;7.90;99.90;;;;;;4948673;29;20407;-83
2021/12/01 07:52:39;;;;;;;0.57;0.57;;;8.00;99.90;;;;;;4949681;29;20067;-84
2021/12/01 07:55:06;;;;;;;0.68;0.50;;;8.00;99.90;;;;;;4951982;29;20063;-81
2021/12/01 07:57:34;;;;;;;1.00;0.32;;;8.00;99.90;;;;;;4968334;28;20062;-81
2021/12/01 08:00:00;;;;;;;2.45;0.40;;;8.10;99.90;;;;;;4967822;29;20294;-84
2021/12/01 08:02:27;;;;;;;1.63;0.52;;;8.10;99.90;;;;;;4974886;29;20042;-83
2021/12/01 08:04:53;;;;;;;3.95;0.70;;;8.10;99.90;;;;;;4974994;29;20035;-83
2021/12/01 08:07:19;;;;;;;2.10;0.80;;;8.10;99.90;;;;;;4976225;29;20054;-85
2021/12/01 08:09:45;;;;;;;0.80;0.50;;;8.20;99.90;;;;;;4971627;28;20031;-84
2021/12/01 08:12:12;;;;;;;0.82;0.60;;;8.20;99.90;;;;;;4944666;28;20046;-83
2021/12/01 08:14:39;;;;;;;2.78;0.60;;;8.20;99.90;;;;;;4958797;28;20030;-84
2021/12/01 08:17:05;;;;;;;1.00;0.73;;;8.20;99.90;;;;;;4948770;29;20118;-83
2021/12/01 08:19:31;;;;;;;1.48;0.70;;;8.30;99.90;;;;;;4958176;28;20037;-84
2021/12/01 08:21:57;;;;;;;0.75;0.68;;;8.30;99.90;;;;;;4970622;28;20075;-83
2021/12/01 08:24:23;;;;;;;1.35;0.60;;;8.30;99.90;;;;;;4982928;28;20105;-84
2021/12/01 08:26:49;;;;;;;3.50;0.60;;;8.30;99.90;;;;;;4984922;28;20090;-84
2021/12/01 08:29:15;;;;;;;0.60;0.60;;;8.40;99.90;;;;;;4980716;28;20030;-84
2021/12/01 08:31:41;;;;;;;2.22;0.82;;;8.40;99.90;;;;;;4965153;29;20391;-85
2021/12/01 08:34:08;;;;;;;1.50;0.73;;;8.40;99.90;;;;;;4964833;28;20450;-85
2021/12/01 08:36:35;;;;;;;2.05;0.60;;;8.50;99.90;;;;;;4962537;29;20054;-83
2021/12/01 08:39:01;;;;;;;1.33;0.60;;;8.50;99.90;;;;;;4962618;29;20451;-84
2021/12/01 08:41:27;;;;;;;2.30;1.00;;;8.50;99.90;;;;;;4966083;29;20423;-85
2021/12/01 08:43:52;;;;;;;0.50;0.50;;;8.50;99.90;;;;;;4964031;28;20035;-86
2021/12/01 08:46:18;;;;;;;3.88;0.90;;;8.50;99.90;;;;;;4961962;28;20027;-84
2021/12/01 08:48:44;;;;;;;2.63;1.13;;;8.60;99.90;;;;;;4961662;29;20019;-84
2021/12/01 08:51:10;;;;;;;1.33;0.70;;;8.60;99.90;;;;;;4963764;29;20038;-84
2021/12/01 08:53:39;;;;;;;1.33;0.60;;;8.60;99.90;;;;;;4964926;28;20027;-84
2021/12/01 08:56:06;;;;;;;1.20;0.68;;;8.50;99.90;;;;;;4949036;29;20041;-85
2021/12/01 08:58:32;;;;;;;1.40;0.82;;;8.50;99.90;;;;;;4968552;29;20023;-84
2021/12/01 09:01:00;;;;;;;0.80;0.80;;;8.60;99.90;;;;;;4972895;29;20031;-85
2021/12/01 09:03:26;;;;;;;1.63;0.73;;;8.60;99.90;;;;;;4956090;29;20047;-84
2021/12/01 09:05:53;;;;;;;0.50;0.50;;;8.60;99.90;;;;;;4956129;29;20027;-83
2021/12/01 09:08:22;;;;;;;2.58;1.52;;;8.60;99.90;;;;;;4975654;29;20031;-85
2021/12/01 09:10:52;;;;;;;2.30;1.20;;;8.60;99.90;;;;;;4973715;29;20150;-84
2021/12/01 09:13:20;;;;;;;1.77;0.90;;;8.60;99.90;;;;;;4974925;29;20027;-84
2021/12/01 09:15:46;;;;;;;1.52;0.80;;;8.60;99.90;;;;;;4976363;28;20020;-84
2021/12/01 09:18:12;;;;;;;1.27;0.70;;;8.60;99.90;;;;;;4962803;29;20028;-84
2021/12/01 09:20:38;;;;;;;1.27;0.60;;;8.60;99.90;;;;;;4960036;29;20098;-84
2021/12/01 09:23:06;;;;;;;3.88;0.90;;;8.60;99.90;;;;;;4969584;28;20066;-82
2021/12/01 09:25:33;;;;;;;5.00;1.15;;;8.60;99.90;;;;;;4981265;28;20046;-82
2021/12/01 09:27:59;;;;;;;2.80;1.00;;;8.60;99.90;;;;;;4981675;28;20023;-83
2021/12/01 09:30:25;;;;;;;4.32;0.80;;;8.60;99.90;;;;;;4965008;28;20035;-84
2021/12/01 09:32:51;;;;;;;5.70;1.45;;;8.70;99.90;;;;;;4981010;28;20067;-84
2021/12/01 09:35:18;;;;;;;2.00;0.60;;;8.60;99.90;;;;;;4980811;28;20050;-83
2021/12/01 09:37:43;;;;;;;1.02;0.50;;;8.60;99.90;;;;;;4973737;28;20047;-83
2021/12/01 09:40:18;;;;;;;1.38;0.60;;;8.60;99.90;;;;;;4980919;28;20034;-81
2021/12/01 09:42:46;;;;;;;1.83;0.68;;;8.60;99.90;;;;;;4980444;28;20025;-80
2021/12/01 09:45:13;;;;;;;1.95;0.82;;;8.60;99.90;;;;;;4979606;28;20035;-82
2021/12/01 09:47:39;;;;;;;1.20;0.55;;;8.60;99.90;;;;;;4980513;28;20044;-80
2021/12/01 09:50:06;;;;;;;2.65;0.75;;;8.60;99.90;;;;;;4979750;28;20142;-82
2021/12/01 09:52:33;;;;;;;1.95;0.90;;;8.60;99.90;;;;;;4979324;28;20253;-80
2021/12/01 09:54:59;;;;;;;1.40;0.77;;;8.70;99.90;;;;;;4980157;28;20019;-81
2021/12/01 09:57:25;;;;;;;1.77;0.90;;;8.60;99.90;;;;;;4979823;28;20030;-82
2021/12/01 09:59:50;;;;;;;2.75;0.60;;;8.70;99.90;;;;;;4979761;28;20078;-81
2021/12/01 10:02:17;;;;;;;1.00;0.80;;;8.70;99.90;;;;;;4979741;28;20035;-81
2021/12/01 10:04:43;;;;;;;1.35;0.68;;;8.70;99.90;;;;;;4979377;28;20035;-80
2021/12/01 10:07:23;;;;;;;1.17;0.70;;;8.70;99.90;;;;;;4974977;29;20078;-83
2021/12/01 10:09:56;;;;;;;2.75;0.80;;;8.70;99.90;;;;;;4941075;29;20107;-85
2021/12/01 10:12:23;;;;;;;0.52;0.50;;;8.70;99.90;;;;;;4970196;29;20077;-84
2021/12/01 10:14:51;;;;;;;3.60;0.70;;;8.70;99.90;;;;;;4974005;29;20015;-82
2021/12/01 10:17:32;;;;;;;1.85;0.65;;;8.70;99.90;;;;;;4975078;29;20057;-82
2021/12/01 10:20:15;;;;;;;1.30;0.73;;;8.70;99.90;;;;;;4971993;29;20062;-83
2021/12/01 10:23:11;;;;;;;2.78;0.60;;;8.70;99.90;;;;;;4953148;29;20038;-85
2021/12/01 10:25:38;;;;;;;3.22;0.82;;;8.80;99.90;;;;;;4971652;29;20043;-83
2021/12/01 10:28:04;;;;;;;3.95;0.95;;;8.80;99.90;;;;;;4971162;29;20031;-83
2021/12/01 10:30:39;;;;;;;1.20;1.00;;;8.80;99.90;;;;;;4968242;29;20046;-84
2021/12/01 10:33:07;;;;;;;2.10;0.90;;;8.80;99.90;;;;;;4972814;28;20038;-83
2021/12/01 10:35:34;;;;;;;1.05;0.70;;;8.80;99.90;;;;;;4955367;29;20106;-84
2021/12/01 10:38:00;;;;;;;5.97;1.23;;;8.80;99.90;;;;;;4955709;29;20031;-84
2021/12/01 10:40:26;;;;;;;13.93;2.67;;;8.80;99.90;;;;;;4953892;29;20035;-83
2021/12/01 10:43:05;;;;;;;10.15;1.55;;;8.90;99.90;;;;;;4962129;29;20483;-83
2021/12/01 10:45:42;;;;;;;6.05;1.23;;;9.00;99.90;;;;;;4951790;29;20103;-84
2021/12/01 10:48:23;;;;;;;5.05;1.70;;;9.00;99.90;;;;;;4969322;29;20031;-85
2021/12/01 10:50:49;;;;;;;4.00;1.40;;;9.10;99.90;;;;;;4971615;29;20102;-84
2021/12/01 10:53:19;;;;;;;4.90;1.15;;;9.00;99.90;;;;;;4961641;29;20019;-82
2021/12/01 10:55:49;;;;;;;1.83;0.50;;;9.00;99.90;;;;;;4963130;29;20027;-85
2021/12/01 10:58:15;;;;;;;2.85;0.95;;;9.00;99.90;;;;;;4964186;29;20020;-84
2021/12/01 11:00:47;;;;;;;5.20;1.27;;;9.10;99.90;;;;;;4962603;29;20058;-84
2021/12/01 11:03:20;;;;;;;2.60;1.00;;;9.10;99.90;;;;;;4963836;29;20047;-85
2021/12/01 11:05:48;;;;;;;3.50;1.00;;;9.10;99.90;;;;;;4969027;29;20031;-84
2021/12/01 11:08:17;;;;;;;2.10;1.17;;;9.10;99.90;;;;;;4968647;29;20023;-82
2021/12/01 11:10:53;;;;;;;6.15;1.25;;;9.10;99.90;;;;;;4972316;29;20499;-83
2021/12/01 11:13:20;;;;;;;8.02;1.98;;;9.10;99.90;;;;;;4967766;29;20035;-83
2021/12/01 11:15:52;;;;;;;3.05;1.20;;;9.20;99.90;;;;;;4972652;28;20023;-84
2021/12/01 11:18:27;;;;;;;2.03;1.17;;;9.20;99.90;;;;;;4974049;29;20027;-83
2021/12/01 11:20:58;;;;;;;3.78;1.13;;;9.20;99.90;;;;;;4956340;29;20031;-84
2021/12/01 11:23:30;;;;;;;4.30;1.00;;;9.20;99.90;;;;;;4972671;29;20123;-83
2021/12/01 11:26:04;;;;;;;3.75;0.93;;;9.20;99.90;;;;;;4975339;29;20095;-82
2021/12/01 11:28:32;;;;;;;5.10;1.38;;;9.30;99.90;;;;;;4973808;29;20042;-83
2021/12/01 11:31:01;;;;;;;7.32;1.20;;;9.30;99.90;;;;;;4975233;29;20035;-83
2021/12/01 11:33:28;;;;;;;3.65;1.50;;;9.40;99.90;;;;;;4974936;29;20086;-82
2021/12/01 11:36:03;;;;;;;5.88;1.83;;;9.50;99.90;;;;;;4974543;29;20047;-83
2021/12/01 11:38:32;;;;;;;3.47;1.77;;;9.60;99.90;;;;;;4971357;29;20028;-83
2021/12/01 11:40:59;;;;;;;3.00;1.75;;;9.70;99.90;;;;;;4960803;29;20402;-82
2021/12/01 11:43:29;;;;;;;4.00;1.65;;;9.80;99.90;;;;;;4959055;29;20027;-83
2021/12/01 11:45:55;;;;;;;4.63;1.90;;;9.80;99.90;;;;;;5009425;23;20047;-87
2021/12/01 11:48:31;;;;;;;3.33;1.27;;;9.80;99.90;;;;;;4977232;28;20026;-86
2021/12/01 11:51:18;;;;;;;2.42;1.17;;;9.70;99.90;;;;;;4982614;28;20039;-85
2021/12/01 11:54:13;;;;;;;3.35;1.38;;;9.70;99.90;;;;;;4984633;28;20038;-85
2021/12/01 11:56:58;;;;;;;2.97;1.30;;;9.60;99.90;;;;;;4942859;29;20066;-87
2021/12/01 11:59:38;;;;;;;3.17;1.25;;;9.60;99.90;;;;;;4974727;29;20042;-85
2021/12/01 12:02:16;;;;;;;3.53;1.35;;;9.50;99.90;;;;;;4964349;28;20020;-85
2021/12/01 12:04:55;;;;;;;5.03;2.08;;;9.40;99.90;;;;;;4979288;28;20089;-86
2021/12/01 12:07:32;;;;;;;3.20;1.45;;;9.40;99.90;;;;;;4979092;29;20035;-86
2021/12/01 12:10:03;;;;;;;3.10;1.20;;;9.40;99.90;;;;;;4964362;29;20039;-85
2021/12/01 12:13:04;;;;;;;5.07;1.17;;;9.30;99.90;;;;;;4980048;29;20094;-87
2021/12/01 12:15:33;;;;;;;3.25;1.60;;;9.20;99.90;;;;;;4954356;29;20519;-86
2021/12/01 12:17:59;;;;;;;3.05;1.23;;;9.20;99.90;;;;;;4955100;29;20027;-85
2021/12/01 12:20:29;;;;;;;3.42;1.10;;;9.20;99.90;;;;;;4972623;29;20031;-86
2021/12/01 12:23:02;;;;;;;3.15;1.10;;;9.20;99.90;;;;;;4972788;29;20043;-88
2021/12/01 12:25:56;;;;;;;2.80;1.30;;;9.30;99.90;;;;;;4963347;28;20542;-85
2021/12/01 12:28:39;;;;;;;2.85;1.33;;;9.30;99.90;;;;;;4971981;28;20051;-86
2021/12/01 12:31:26;;;;;;;5.50;1.40;;;9.30;99.90;;;;;;4957649;29;20050;-86
2021/12/01 12:33:55;;;;;;;4.25;1.48;;;9.40;99.90;;;;;;4975379;29;20031;-86
2021/12/01 12:36:44;;;;;;;6.00;2.22;;;9.50;99.90;;;;;;4982506;28;20028;-87
2021/12/01 12:39:19;;;;;;;9.85;2.25;;;9.60;99.90;;;;;;4998749;28;20027;-86
2021/12/01 12:42:04;;;;;;;6.20;1.40;;;9.60;99.90;;;;;;4983645;28;20045;-85
2021/12/01 12:44:32;;;;;;;3.83;1.98;;;9.60;99.90;;;;;;4999750;28;20061;-84
2021/12/01 12:47:06;;;;;;;3.47;2.05;;;9.60;99.90;;;;;;4974730;28;20061;-87
2021/12/01 12:49:36;;;;;;;5.90;2.28;;;9.70;99.90;;;;;;4992291;28;20071;-85
2021/12/01 12:52:39;;;;;;;5.72;1.50;;;9.60;99.90;;;;;;4977670;28;20082;-87
2021/12/01 12:55:08;;;;;;;2.75;1.27;;;9.60;99.90;;;;;;4915980;29;20381;-85
2021/12/01 12:57:52;;;;;;;3.33;1.60;;;9.50;99.90;;;;;;4965686;28;20085;-86
2021/12/01 13:00:47;;;;;;;3.60;1.50;;;9.50;99.90;;;;;;4992160;28;20049;-85
2021/12/01 13:03:25;;;;;;;3.00;1.65;;;9.60;99.90;;;;;;4991022;28;20035;-85
2021/12/01 13:06:05;;;;;;;4.70;1.40;;;9.70;99.90;;;;;;4990853;28;20041;-84
2021/12/01 13:08:40;;;;;;;5.10;1.80;;;9.70;99.90;;;;;;4992860;28;20022;-84
2021/12/01 13:11:09;;;;;;;4.43;1.70;;;9.90;99.90;;;;;;4991864;28;20109;-86
2021/12/01 13:13:38;;;;;;;4.03;1.52;;;10.00;99.90;;;;;;4992219;28;20297;-87